Lowell, AR (72745)

3:46 PM CDT on September 29, 2016 (GMT -0500)
City Park Downtown Lowell Arkansas | | Change Station

Elev 1345 ft 36.26 °N, 94.13 °W | Updated 8 minutes ago

Clear
Clear
69.2 °F
Feels Like 69.2 °F
N
10.0
Wind Variable Wind from West
Gusts 16.0 mph

Today
High -- | Low -- °F
--% Chance of Precip.
Yesterday
High -- | Low -- °F
Precip. -- in
Pressure 30.28 in
Visibility 10.0 miles
Clouds Clear
Dew Point 49 °F
Humidity 48%
Rainfall 0.00 in
Snow Depth Not available.
7:10 AM 7:02 PM
Waning Crescent, 1% visible
METAR KASG 291948Z 01009G16KT 10SM SKC 21/08 A3028
Pressure 30.28 in
Visibility 10.0 miles
Clouds Clear
Dew Point 49 °F
Humidity 48%
Rainfall 0.00 in
Snow Depth Not available.
7:10 AM 7:02 PM
Waning Crescent, 1% visible
METAR KASG 291948Z 01009G16KT 10SM SKC 21/08 A3028

10-Day Weather Forecast

Almanac

Astronomy

Sep. 29, 2016 Rise Set
Actual Time
Civil Twilight
Nautical Twilight
Astronomical Twilight
Moon
Length of Visible Light
Length of Day
Tomorrow will be .
, % of the Moon is Illuminated

Today's Extremes

State Highs State Lows

Community

WunderPhotos

Upload Photos

1,942,564 photos uploaded!

WunderBlog® & News

Nearby

Air Quality

  Air Quality AQ Index Pollutant
Not available.

Snow Depth

Station Depth Elevation

Earthquake Activity

City Distance Mag. Time & Date
Minimum magnitude displayed is 2.5.

Coastal Water Temperatures

Place Temperature

Stations

Nearby Weather Stations

Station Location Temp. Windchill Dew Point Humidity Wind Precip. Elev Updated Type
                   

Watches & Warnings

There are currently no watches in effect.